createdAt,value
2018-08-13T05:43:30.330Z,64.2
2018-08-13T05:43:50.503Z,63.9
2018-08-13T05:44:10.687Z,64.1
2018-08-13T05:44:30.940Z,64.1
2018-08-13T05:44:51.081Z,63.7
2018-08-13T05:45:11.321Z,63.7
2018-08-13T05:45:31.485Z,63.6
2018-08-13T05:45:51.658Z,63.7
2018-08-13T05:46:11.843Z,63.6
2018-08-13T05:46:32.122Z,63.9
2018-08-13T05:46:52.371Z,63.8
2018-08-13T05:47:12.525Z,63.5
2018-08-13T05:47:32.699Z,63.7
2018-08-13T05:47:52.843Z,63.5
2018-08-13T05:48:13.043Z,63.4
2018-08-13T05:48:33.183Z,63.3
2018-08-13T05:48:53.311Z,63.3
2018-08-13T05:49:13.489Z,63.6
2018-08-13T05:49:33.654Z,62.7
2018-08-13T05:49:53.801Z,62.7
2018-08-13T05:50:13.962Z,62.7
2018-08-13T05:50:34.084Z,62.8
2018-08-13T05:50:54.302Z,62.7
2018-08-13T05:51:14.513Z,63.4
2018-08-13T05:51:34.725Z,63.7
2018-08-13T05:51:54.932Z,63.8
2018-08-13T05:52:15.100Z,63.2
2018-08-13T05:52:35.294Z,63.4
2018-08-13T05:52:55.621Z,63.4
2018-08-13T05:53:15.679Z,63.1
2018-08-13T05:53:35.871Z,62.9
2018-08-13T05:53:56.041Z,62.8
2018-08-13T05:54:16.195Z,62.8
2018-08-13T05:54:36.407Z,62.2
2018-08-13T05:54:56.566Z,62.4
2018-08-13T05:55:16.731Z,62.3
2018-08-13T05:55:36.995Z,61.9
2018-08-13T05:55:57.143Z,61.8
2018-08-13T05:56:17.271Z,61.7
2018-08-13T05:56:37.477Z,61.7
2018-08-13T05:56:57.629Z,61.7
2018-08-13T05:57:17.807Z,62.3
2018-08-13T05:57:37.998Z,62.2
2018-08-13T05:57:58.141Z,62
2018-08-13T05:58:18.286Z,61.9
2018-08-13T05:58:38.456Z,61.8
2018-08-13T05:58:58.627Z,62.2
2018-08-13T05:59:18.750Z,61.4
2018-08-13T05:59:38.900Z,62.1
2018-08-13T05:59:59.094Z,61.8
2018-08-13T06:00:19.278Z,61.9
2018-08-13T06:00:39.409Z,61.5
2018-08-13T06:00:59.570Z,61.9
2018-08-13T06:01:19.731Z,61.5
2018-08-13T06:01:39.885Z,62
2018-08-13T06:02:00.085Z,61.5
2018-08-13T06:02:20.258Z,61.7
2018-08-13T06:02:40.354Z,61.9
2018-08-13T06:03:00.604Z,61.5
2018-08-13T06:03:20.960Z,62.4
2018-08-13T06:03:41.156Z,60.9
2018-08-13T06:04:01.293Z,61.4
2018-08-13T06:04:21.482Z,60.8
2018-08-13T06:04:41.637Z,61
2018-08-13T06:05:01.812Z,61.6
2018-08-13T06:05:21.950Z,61.6
2018-08-13T06:05:42.114Z,61.4
2018-08-13T06:06:02.299Z,61.1
2018-08-13T06:06:22.446Z,60.5
2018-08-13T06:06:42.614Z,60.4
2018-08-13T06:07:02.785Z,60.6
2018-08-13T06:07:22.956Z,60
2018-08-13T06:07:43.127Z,60.4
2018-08-13T06:08:03.403Z,60
2018-08-13T06:08:23.566Z,60.4
2018-08-13T06:08:43.717Z,60.7
2018-08-13T06:09:03.887Z,60.5
2018-08-13T06:09:24.047Z,60
2018-08-13T06:09:44.276Z,59.8
2018-08-13T06:10:04.516Z,59.4
2018-08-13T06:10:24.685Z,60.3
2018-08-13T06:10:44.906Z,60.5
2018-08-13T06:11:05.106Z,59.5
2018-08-13T06:11:25.409Z,59.6
2018-08-13T06:11:45.855Z,59.7
2018-08-13T06:12:05.860Z,60
2018-08-13T06:12:26.005Z,59.4
2018-08-13T06:12:46.192Z,59.9
2018-08-13T06:13:06.346Z,60.1
2018-08-13T06:13:26.507Z,59.9
2018-08-13T06:13:46.658Z,60.1
2018-08-13T06:14:06.823Z,60.4
2018-08-13T06:14:27.015Z,60.3
2018-08-13T06:14:47.181Z,59.8
2018-08-13T06:15:07.319Z,59.8
2018-08-13T06:15:27.463Z,59.8
2018-08-13T06:15:47.642Z,59.7
2018-08-13T06:16:07.775Z,59.6
2018-08-13T06:16:27.968Z,59.2
2018-08-13T06:16:48.121Z,59.4
2018-08-13T06:17:08.326Z,59.7
2018-08-13T06:17:28.485Z,59.3
2018-08-13T06:17:48.667Z,58.7
2018-08-13T06:18:08.942Z,59.2
2018-08-13T06:18:29.299Z,59
2018-08-13T06:18:49.410Z,58.7
2018-08-13T06:19:09.724Z,59.2
2018-08-13T06:19:29.913Z,59.7
2018-08-13T06:19:50.103Z,59.5
2018-08-13T06:20:10.314Z,60.5
2018-08-13T06:20:30.521Z,59.7
2018-08-13T06:20:50.721Z,59.5
2018-08-13T06:21:10.924Z,59.4
2018-08-13T06:21:31.110Z,59.1
2018-08-13T06:21:51.267Z,59.3
2018-08-13T06:22:11.512Z,59.6
2018-08-13T06:22:31.697Z,59.6
2018-08-13T06:22:51.890Z,59.8
2018-08-13T06:23:12.157Z,59.4
2018-08-13T06:23:32.408Z,59.8
2018-08-13T06:23:52.614Z,59.3
2018-08-13T06:24:12.843Z,60.1
2018-08-13T06:24:32.993Z,59.3
2018-08-13T06:24:53.279Z,59.6
2018-08-13T06:25:13.481Z,59.1
2018-08-13T06:25:33.635Z,58.8
2018-08-13T06:25:53.979Z,58.8
2018-08-13T06:26:14.290Z,58.8
2018-08-13T06:26:34.567Z,58.8
2018-08-13T06:26:54.822Z,58.8
2018-08-13T06:27:15.152Z,58.7
2018-08-13T06:27:35.389Z,58.7
2018-08-13T06:27:55.660Z,58.8
2018-08-13T06:28:15.961Z,58.6
2018-08-13T06:28:36.045Z,59.4
2018-08-13T06:28:56.311Z,58.8
2018-08-13T06:29:16.517Z,59.1
2018-08-13T06:29:36.659Z,58.8
2018-08-13T06:29:56.913Z,58.5
2018-08-13T06:30:17.137Z,58.6
2018-08-13T06:30:37.394Z,58.3
2018-08-13T06:30:57.647Z,58.3
2018-08-13T06:31:17.818Z,58
2018-08-13T06:31:38.137Z,58.6
2018-08-13T06:31:58.382Z,58.4
2018-08-13T06:32:18.595Z,58.5
2018-08-13T06:32:38.985Z,58
2018-08-13T06:32:59.357Z,58
2018-08-13T06:33:19.875Z,57.8
2018-08-13T06:33:40.046Z,58.1
2018-08-13T06:34:00.300Z,57.8
2018-08-13T06:34:20.715Z,57.7
2018-08-13T06:34:40.919Z,57.6
2018-08-13T06:35:01.311Z,57.3
2018-08-13T06:35:21.699Z,57.8
2018-08-13T06:35:41.969Z,57.6
2018-08-13T06:36:02.271Z,57.1
2018-08-13T06:36:22.626Z,56.3
2018-08-13T06:36:42.859Z,56.3
2018-08-13T06:37:03.136Z,57.3
2018-08-13T06:37:23.525Z,57.1
2018-08-13T06:37:43.687Z,57.1
2018-08-13T06:38:04.223Z,57.2
2018-08-13T06:38:24.464Z,57
2018-08-13T06:38:44.737Z,56.7
2018-08-13T06:39:04.970Z,56.6
2018-08-13T06:39:25.131Z,56.5
2018-08-13T06:39:45.393Z,56.7
2018-08-13T06:40:05.746Z,56.3
2018-08-13T06:40:26.023Z,56.4
2018-08-13T06:40:46.253Z,56.1
2018-08-13T06:41:06.392Z,57.1
2018-08-13T06:41:26.573Z,56.7
2018-08-13T06:41:46.912Z,56
2018-08-13T06:42:07.279Z,55.5
2018-08-13T06:42:27.528Z,55.7
2018-08-13T06:42:47.745Z,56
2018-08-13T06:43:07.997Z,55.6
2018-08-13T06:43:28.165Z,55.6
2018-08-13T06:43:48.319Z,55.7
2018-08-13T06:44:08.630Z,55.8
2018-08-13T06:44:28.785Z,55.8
2018-08-13T06:44:48.980Z,55.9
2018-08-13T06:45:09.161Z,55.6
2018-08-13T06:45:29.340Z,55.6
2018-08-13T06:45:49.530Z,54.9
2018-08-13T06:46:09.702Z,54.7
2018-08-13T06:46:29.899Z,54.4
2018-08-13T06:46:50.140Z,54.6
2018-08-13T06:47:10.363Z,54.7
2018-08-13T06:47:30.446Z,55.2
2018-08-13T06:47:50.671Z,55
2018-08-13T06:48:10.843Z,55.4
2018-08-13T06:48:31.123Z,54.3
2018-08-13T06:48:51.312Z,54.4
2018-08-13T06:49:11.495Z,54.7
2018-08-13T06:49:31.671Z,54.5
2018-08-13T06:49:51.846Z,54.5
2018-08-13T06:50:11.983Z,54.5
2018-08-13T06:50:32.146Z,54.4
2018-08-13T06:50:52.367Z,54.5
2018-08-13T06:51:12.579Z,54.5
2018-08-13T06:51:32.773Z,54.3
2018-08-13T06:51:52.985Z,54.4
2018-08-13T06:52:13.224Z,54.4
2018-08-13T06:52:33.428Z,54.4
2018-08-13T06:52:53.641Z,54.2
2018-08-13T06:53:13.843Z,54.4
2018-08-13T06:53:33.991Z,54.5
2018-08-13T06:53:54.197Z,54.3
2018-08-13T06:54:14.492Z,54.5
2018-08-13T06:54:34.741Z,54.4
2018-08-13T06:54:54.999Z,54.4
2018-08-13T06:55:15.318Z,54.9
2018-08-13T06:55:35.474Z,54.6
2018-08-13T06:55:55.712Z,54.4
2018-08-13T06:56:15.948Z,54.2
2018-08-13T06:56:36.213Z,54
2018-08-13T06:56:56.424Z,53.6
2018-08-13T06:57:16.626Z,53.9
2018-08-13T06:57:36.922Z,53.7
2018-08-13T06:57:57.058Z,54.2
2018-08-13T06:58:17.235Z,54
2018-08-13T06:58:37.562Z,53.8
2018-08-13T06:58:57.737Z,53.7
2018-08-13T06:59:17.942Z,53.8
2018-08-13T06:59:38.193Z,53.6
2018-08-13T06:59:58.488Z,53.4
2018-08-13T07:00:18.735Z,53.2
2018-08-13T07:00:39.428Z,53.4
2018-08-13T07:00:59.913Z,53.6
2018-08-13T07:01:20.080Z,53.3
2018-08-13T07:01:40.436Z,53.4
2018-08-13T07:02:00.634Z,53.5
2018-08-13T07:02:20.852Z,53.4
2018-08-13T07:02:41.091Z,53.8
2018-08-13T07:03:01.416Z,53.8
2018-08-13T07:03:21.719Z,53.7
2018-08-13T07:03:41.892Z,53.2
2018-08-13T07:04:02.184Z,53.1
2018-08-13T07:04:22.401Z,52.3
2018-08-13T07:04:42.658Z,52.8
2018-08-13T07:05:02.963Z,52.4
2018-08-13T07:05:23.224Z,52.2
2018-08-13T07:05:43.456Z,52.8
2018-08-13T07:06:03.917Z,52.5
2018-08-13T07:06:24.312Z,52.9
2018-08-13T07:06:44.650Z,53
2018-08-13T07:07:04.980Z,52.6
2018-08-13T07:07:25.236Z,51.9
2018-08-13T07:07:45.506Z,51.8
2018-08-13T07:08:05.813Z,52.2
2018-08-13T07:08:26.151Z,52.1
2018-08-13T07:08:46.424Z,52.2
2018-08-13T07:09:06.607Z,52.5
2018-08-13T07:09:26.840Z,52.4
2018-08-13T07:09:47.240Z,52.6
2018-08-13T07:10:07.661Z,51.5
2018-08-13T07:10:28.037Z,51.5
2018-08-13T07:10:48.301Z,51.2
2018-08-13T07:11:08.705Z,51.2
2018-08-13T07:11:28.979Z,50.6
2018-08-13T07:11:49.353Z,51.1
2018-08-13T07:12:09.591Z,51.4
2018-08-13T07:12:29.870Z,50.3
2018-08-13T07:12:50.297Z,50.8
2018-08-13T07:13:10.597Z,50.9
2018-08-13T07:13:30.962Z,50.8
2018-08-13T07:13:51.361Z,50.8
2018-08-13T07:14:11.660Z,51
2018-08-13T07:14:32.036Z,51
2018-08-13T07:14:52.308Z,50.8
2018-08-13T07:15:12.607Z,51.4
2018-08-13T07:15:32.821Z,51.8
2018-08-13T07:15:52.994Z,51.3
2018-08-13T07:16:13.270Z,51.4
2018-08-13T07:16:33.523Z,51.9
2018-08-13T07:16:53.822Z,51.1
2018-08-13T07:17:14.088Z,51.6
2018-08-13T07:17:34.310Z,51.5
2018-08-13T07:17:54.506Z,51.8
2018-08-13T07:18:14.728Z,51.5
2018-08-13T07:18:35.051Z,50.7
2018-08-13T07:18:55.399Z,50.5
2018-08-13T07:19:15.607Z,49.7
2018-08-13T07:19:35.994Z,49.7
2018-08-13T07:19:56.331Z,50.1
2018-08-13T07:20:17.573Z,50.5
2018-08-13T07:20:37.785Z,50.9
2018-08-13T07:20:58.208Z,50.5
2018-08-13T07:21:18.443Z,50
2018-08-13T07:21:38.741Z,49.6
2018-08-13T07:21:59.061Z,49.9
2018-08-13T07:22:19.551Z,49.7
2018-08-13T07:22:40.037Z,49.5
2018-08-13T07:23:01.083Z,49.7
2018-08-13T07:23:21.499Z,49.7
2018-08-13T07:23:41.977Z,49
2018-08-13T07:24:02.220Z,49.7
2018-08-13T07:24:22.552Z,49.5
2018-08-13T07:24:42.880Z,49.3
2018-08-13T07:25:03.115Z,49.2
2018-08-13T07:25:23.378Z,48.9
2018-08-13T07:25:43.561Z,48.8
2018-08-13T07:26:03.914Z,48.9
2018-08-13T07:26:24.107Z,49.4
2018-08-13T07:26:44.292Z,49.7
2018-08-13T07:27:04.427Z,49.7
2018-08-13T07:27:24.605Z,49.6
2018-08-13T07:27:45.015Z,49.4
2018-08-13T07:28:05.315Z,48.4
2018-08-13T07:28:25.542Z,48.6
2018-08-13T07:28:45.767Z,49.1
2018-08-13T07:29:05.994Z,48.8
2018-08-13T07:29:26.253Z,48.8
2018-08-13T07:29:46.547Z,49.4
2018-08-13T07:30:06.767Z,48.8
2018-08-13T07:30:27.012Z,49
2018-08-13T07:30:47.337Z,49.9
2018-08-13T07:31:07.553Z,49.6
2018-08-13T07:31:27.682Z,49.2
2018-08-13T07:31:47.953Z,48.9
2018-08-13T07:32:08.300Z,48.8
2018-08-13T07:32:28.586Z,48.8
2018-08-13T07:32:48.797Z,48.5
2018-08-13T07:33:08.986Z,48.5
2018-08-13T07:33:29.306Z,48.5
2018-08-13T07:33:49.555Z,48.9
2018-08-13T07:34:09.741Z,48
2018-08-13T07:34:29.986Z,47.7
2018-08-13T07:34:50.224Z,48.5
2018-08-13T07:35:10.438Z,48.1
2018-08-13T07:35:30.664Z,47.9
2018-08-13T07:35:50.941Z,47.4
2018-08-13T07:36:11.222Z,46.8
2018-08-13T07:36:31.588Z,46.9
2018-08-13T07:36:52.087Z,47.5
2018-08-13T07:37:12.313Z,47.3
2018-08-13T07:37:32.493Z,47.7
2018-08-13T07:37:52.681Z,47.5
2018-08-13T07:38:12.944Z,47.1
2018-08-13T07:38:33.126Z,47.7
2018-08-13T07:38:53.343Z,47.7
2018-08-13T07:39:13.616Z,47.5
2018-08-13T07:39:33.967Z,47.4
2018-08-13T07:39:53.940Z,47.6
2018-08-13T07:40:14.141Z,47
2018-08-13T07:40:34.357Z,47.3
2018-08-13T07:40:54.530Z,47.1
2018-08-13T07:41:14.716Z,47.1
2018-08-13T07:41:34.930Z,46.5
2018-08-13T07:41:55.116Z,46.5
2018-08-13T07:42:15.279Z,46.1
2018-08-13T07:42:35.585Z,46.1
2018-08-13T07:42:55.922Z,45.6
2018-08-13T07:43:16.184Z,45.9
2018-08-13T07:43:36.475Z,46
2018-08-13T07:43:57.563Z,45.9
2018-08-13T07:44:17.802Z,46.3
2018-08-13T07:44:38.220Z,46.3
2018-08-13T07:44:58.973Z,46.1
2018-08-13T07:45:20.180Z,45.8
2018-08-13T07:45:40.590Z,45.9
2018-08-13T07:46:00.675Z,46.7
2018-08-13T07:46:20.855Z,46.5
2018-08-13T07:46:42.071Z,46.2
2018-08-13T07:47:02.272Z,45.9
2018-08-13T07:47:22.565Z,46.2
2018-08-13T07:47:42.789Z,46
2018-08-13T07:48:03.085Z,47.2
2018-08-13T07:48:23.295Z,47.2
2018-08-13T07:48:43.602Z,47.2
2018-08-13T07:49:03.993Z,47.2
2018-08-13T07:49:24.239Z,47.1
2018-08-13T07:49:44.590Z,46.4
2018-08-13T07:50:05.704Z,46
2018-08-13T07:50:26.006Z,46.2
2018-08-13T07:50:46.249Z,46.1
2018-08-13T07:51:06.543Z,46.1
2018-08-13T07:51:27.726Z,45.9
2018-08-13T07:51:48.204Z,46
2018-08-13T07:52:08.531Z,45.1
2018-08-13T07:52:28.774Z,45
2018-08-13T07:52:48.958Z,44.7
2018-08-13T07:53:09.242Z,44.8
2018-08-13T07:53:29.459Z,44.7
2018-08-13T07:53:49.623Z,44.8
2018-08-13T07:54:09.905Z,44.9
2018-08-13T07:54:30.085Z,45
2018-08-13T07:54:50.358Z,44.7
2018-08-13T07:55:10.618Z,44.6
2018-08-13T07:55:30.926Z,45.1
2018-08-13T07:55:51.356Z,45.4
2018-08-13T07:56:11.611Z,45.3
2018-08-13T07:56:31.992Z,45.3
2018-08-13T07:56:52.252Z,45.9
2018-08-13T07:57:12.566Z,46
2018-08-13T07:57:32.965Z,45.3
2018-08-13T07:57:53.365Z,45.4
2018-08-13T07:58:13.815Z,44.7
2018-08-13T07:58:34.100Z,44.7
2018-08-13T07:58:54.408Z,44.9
2018-08-13T07:59:15.148Z,45.1
2018-08-13T07:59:35.345Z,45.5
2018-08-13T07:59:55.598Z,45.1
2018-08-13T08:00:15.891Z,45.3
2018-08-13T08:00:36.108Z,45.2
2018-08-13T08:00:56.408Z,45.4
2018-08-13T08:01:16.782Z,46.2
2018-08-13T08:01:37.037Z,46.2
2018-08-13T08:01:57.289Z,45.7
2018-08-13T08:02:17.483Z,45.2
2018-08-13T08:02:37.833Z,44.9
2018-08-13T08:02:58.176Z,45.3
2018-08-13T08:03:18.377Z,45
2018-08-13T08:03:38.845Z,44.5
2018-08-13T08:03:59.064Z,44.7
2018-08-13T08:04:19.294Z,44.9
2018-08-13T08:04:39.521Z,45.2
2018-08-13T08:04:59.690Z,45.6
2018-08-13T08:05:19.981Z,45
2018-08-13T08:05:40.296Z,44.8
2018-08-13T08:06:00.495Z,44.4
2018-08-13T08:06:20.775Z,44.5
2018-08-13T08:06:40.943Z,44.7
2018-08-13T08:07:01.205Z,44.9
2018-08-13T08:07:21.483Z,44.6
2018-08-13T08:07:41.752Z,44.5
2018-08-13T08:08:01.968Z,44.9
2018-08-13T08:08:22.230Z,44.5
2018-08-13T08:08:42.536Z,42.9
2018-08-13T08:09:02.751Z,42.6
2018-08-13T08:09:23.210Z,43.3
2018-08-13T08:09:43.551Z,44.2
2018-08-13T08:10:03.675Z,43.7
2018-08-13T08:10:23.854Z,43.4
2018-08-13T08:10:44.107Z,43.4
2018-08-13T08:11:04.354Z,42.6
2018-08-13T08:11:24.660Z,42.4
2018-08-13T08:11:44.842Z,43.1
2018-08-13T08:12:05.160Z,42.8
2018-08-13T08:12:25.400Z,41.8
2018-08-13T08:12:45.637Z,41.7
2018-08-13T08:13:05.908Z,41.8
2018-08-13T08:13:26.162Z,41.9
2018-08-13T08:13:46.343Z,42.2
2018-08-13T08:14:06.900Z,42.2
2018-08-13T08:14:27.199Z,41.7
2018-08-13T08:14:47.456Z,41.3
2018-08-13T08:15:07.841Z,41.5
2018-08-13T08:15:28.044Z,40.8
2018-08-13T08:15:48.293Z,41.3
2018-08-13T08:16:08.540Z,41.3
2018-08-13T08:16:28.680Z,41.3
2018-08-13T08:16:48.879Z,40.6
2018-08-13T08:17:09.007Z,40.8
2018-08-13T08:17:29.310Z,41.5
2018-08-13T08:17:49.525Z,41.3
2018-08-13T08:18:09.851Z,40.8
2018-08-13T08:18:30.065Z,40.6
2018-08-13T08:18:50.269Z,40.1
2018-08-13T08:19:10.390Z,39.8
2018-08-13T08:19:30.703Z,39.3
2018-08-13T08:19:50.853Z,39.3
2018-08-13T08:20:11.109Z,39.4
2018-08-13T08:20:31.322Z,39.2
2018-08-13T08:20:51.612Z,39.4
2018-08-13T08:21:11.821Z,39.2
2018-08-13T08:21:32.134Z,39
2018-08-13T08:21:52.399Z,38.1
2018-08-13T08:22:12.635Z,38.1
2018-08-13T08:22:32.790Z,38.2
2018-08-13T08:22:52.982Z,39
2018-08-13T08:23:13.266Z,39.4
2018-08-13T08:23:33.466Z,38.8
2018-08-13T08:23:53.815Z,38.9
2018-08-13T08:24:14.038Z,38.3
2018-08-13T08:24:34.276Z,38.2
2018-08-13T08:24:54.576Z,38.3
2018-08-13T08:25:14.802Z,37.8
2018-08-13T08:25:35.057Z,38.3
2018-08-13T08:25:55.254Z,38.8
2018-08-13T08:26:15.467Z,39.6
2018-08-13T08:26:35.893Z,40.2
2018-08-13T08:26:56.097Z,39.6
2018-08-13T08:27:16.256Z,39.5
2018-08-13T08:27:36.498Z,39.8
2018-08-13T08:27:56.755Z,40
2018-08-13T08:28:17.180Z,40.2
2018-08-13T08:28:37.451Z,40.2
2018-08-13T08:28:58.843Z,40.5
2018-08-13T08:29:19.088Z,38.4
2018-08-13T08:29:39.336Z,36.3
2018-08-13T08:29:59.661Z,36.6
2018-08-13T08:30:19.994Z,36.3
2018-08-13T08:30:40.840Z,35.9
2018-08-13T08:31:01.218Z,35.6
2018-08-13T08:31:21.363Z,34.9
2018-08-13T08:31:41.594Z,35
2018-08-13T08:32:01.788Z,35
2018-08-13T08:32:22.007Z,35.1
2018-08-13T08:32:42.256Z,35
2018-08-13T08:33:02.463Z,34.9
2018-08-13T08:33:22.655Z,35
2018-08-13T08:33:42.966Z,34.7
2018-08-13T08:34:03.327Z,34.9
2018-08-13T08:34:23.599Z,34.5
2018-08-13T08:34:44.867Z,34.7
2018-08-13T08:35:05.101Z,35.2
2018-08-13T08:35:25.427Z,35.1
2018-08-13T08:35:45.623Z,34.5
2018-08-13T08:36:05.878Z,34.4
2018-08-13T08:36:26.242Z,34.3
2018-08-13T08:36:46.594Z,34.6
2018-08-13T08:37:07.684Z,34.7
2018-08-13T08:37:27.934Z,34.6
2018-08-13T08:37:48.157Z,34.6
2018-08-13T08:38:08.384Z,34.4
2018-08-13T08:38:28.620Z,34.2
2018-08-13T08:38:49.006Z,33.6
2018-08-13T08:39:09.284Z,33.7
2018-08-13T08:39:29.604Z,34.1
2018-08-13T08:39:49.972Z,34.3
2018-08-13T08:40:10.467Z,35
2018-08-13T08:40:30.913Z,34.7
2018-08-13T08:40:51.113Z,34.7
2018-08-13T08:41:11.396Z,34.4
2018-08-13T08:41:31.658Z,34.4
2018-08-13T08:41:51.965Z,34.3
2018-08-13T08:42:12.217Z,34.2
2018-08-13T08:42:32.489Z,34.1
2018-08-13T08:42:52.852Z,34
2018-08-13T08:43:13.128Z,33.4
2018-08-13T08:43:34.232Z,34
2018-08-13T08:43:54.499Z,34.2
2018-08-13T08:44:14.703Z,34.4
2018-08-13T08:44:34.864Z,34.5
2018-08-13T08:44:55.138Z,34.1
2018-08-13T08:45:15.378Z,34
2018-08-13T08:45:35.705Z,33.9
2018-08-13T08:45:56.310Z,33.7
2018-08-13T08:46:16.656Z,33.6
2018-08-13T08:46:36.910Z,34.1
2018-08-13T08:46:57.145Z,33.6
2018-08-13T08:47:17.390Z,33.5
2018-08-13T08:47:37.782Z,33.6
2018-08-13T08:47:58.113Z,33.7
2018-08-13T08:48:18.399Z,33.9
2018-08-13T08:48:38.709Z,33.6
2018-08-13T08:48:58.947Z,33.1
2018-08-13T08:49:19.257Z,33.1
2018-08-13T08:49:39.496Z,32.9
2018-08-13T08:49:59.767Z,33
2018-08-13T08:50:20.197Z,33.3
2018-08-13T08:50:40.486Z,33.3
2018-08-13T08:51:00.739Z,34.3
2018-08-13T08:51:20.921Z,34.4
2018-08-13T08:51:41.371Z,34.9
2018-08-13T08:52:01.578Z,34.9
2018-08-13T08:52:21.911Z,33.4
2018-08-13T08:52:42.355Z,33.2
2018-08-13T08:53:02.590Z,33.6
2018-08-13T08:53:22.845Z,34.1
2018-08-13T08:53:43.355Z,34.5
2018-08-13T08:54:03.823Z,33.5
2018-08-13T08:54:25.237Z,33.1
2018-08-13T08:54:45.724Z,33.3
2018-08-13T08:55:06.090Z,33.5
2018-08-13T08:55:26.313Z,33.6
2018-08-13T08:55:46.598Z,34.1
2018-08-13T08:56:06.931Z,33.4
2018-08-13T08:56:27.315Z,34.2
2018-08-13T08:56:47.555Z,34.5
2018-08-13T08:57:07.576Z,34.3
2018-08-13T08:57:27.876Z,34.5
2018-08-13T08:57:48.151Z,34.4
2018-08-13T08:58:08.366Z,34.5
2018-08-13T08:58:28.656Z,33.6
2018-08-13T08:58:48.878Z,33.4
2018-08-13T08:59:09.240Z,33.5
2018-08-13T08:59:29.520Z,33.5
2018-08-13T08:59:49.723Z,33.5
2018-08-13T09:00:09.999Z,33.5
2018-08-13T09:00:30.242Z,33.3
2018-08-13T09:00:50.589Z,33
2018-08-13T09:01:11.773Z,33
2018-08-13T09:01:32.144Z,33.2
2018-08-13T09:01:52.231Z,33.2
2018-08-13T09:02:12.492Z,33.4
2018-08-13T09:02:32.782Z,33.6
2018-08-13T09:02:53.134Z,33.8
2018-08-13T09:03:13.378Z,33.6
2018-08-13T09:03:33.548Z,33.5
2018-08-13T09:03:53.766Z,33.4
2018-08-13T09:04:13.977Z,34.3
2018-08-13T09:04:34.171Z,34.6
2018-08-13T09:04:54.355Z,35
2018-08-13T09:05:14.567Z,35
2018-08-13T09:05:34.747Z,34.7
2018-08-13T09:05:54.971Z,35
2018-08-13T09:06:15.327Z,34.6
2018-08-13T09:06:35.547Z,34
2018-08-13T09:06:55.752Z,33.8
2018-08-13T09:07:15.955Z,33.5
2018-08-13T09:07:36.120Z,33.5
2018-08-13T09:07:56.283Z,33.6
2018-08-13T09:08:16.539Z,33.6
2018-08-13T09:08:36.755Z,33.4
2018-08-13T09:08:56.909Z,33.3
2018-08-13T09:09:17.066Z,33.6
2018-08-13T09:09:37.186Z,33.6
2018-08-13T09:09:57.372Z,33.4
2018-08-13T09:10:17.634Z,33
2018-08-13T09:10:37.806Z,32.5
2018-08-13T09:10:58.043Z,32.8
2018-08-13T09:11:18.249Z,32.4
2018-08-13T09:11:38.663Z,32.8
2018-08-13T09:11:59.032Z,32.7
2018-08-13T09:12:19.474Z,32.9
2018-08-13T09:12:39.755Z,33.1
2018-08-13T09:13:00.092Z,33.3
2018-08-13T09:13:20.417Z,33.2
2018-08-13T09:13:40.597Z,32.4
2018-08-13T09:14:00.858Z,33.5
2018-08-13T09:14:21.116Z,34.1
2018-08-13T09:14:41.304Z,33.1
2018-08-13T09:15:01.557Z,33
2018-08-13T09:15:21.784Z,32.8
2018-08-13T09:15:42.063Z,32.6
2018-08-13T09:16:02.335Z,33.1
2018-08-13T09:16:22.525Z,32.5
2018-08-13T09:16:42.759Z,32.6
2018-08-13T09:17:02.988Z,32.8
2018-08-13T09:17:23.181Z,33.4
2018-08-13T09:17:43.408Z,34.4
2018-08-13T09:18:03.634Z,35.4
2018-08-13T09:18:23.967Z,34.7
2018-08-13T09:18:44.186Z,34.8
2018-08-13T09:19:04.523Z,34.9
2018-08-13T09:19:24.782Z,34.6
2018-08-13T09:19:45.058Z,34.4
2018-08-13T09:20:05.320Z,33.4
2018-08-13T09:20:25.551Z,33.8
2018-08-13T09:20:45.943Z,34.1
2018-08-13T09:21:06.196Z,34.5
2018-08-13T09:21:26.437Z,34.7
2018-08-13T09:21:46.672Z,34.9
2018-08-13T09:22:07.000Z,34.7
2018-08-13T09:22:27.708Z,35
2018-08-13T09:22:48.767Z,34.7
2018-08-13T09:23:10.787Z,34.4
2018-08-13T09:23:31.089Z,33.9
2018-08-13T09:23:51.366Z,34.1
2018-08-13T09:24:11.797Z,33.6
2018-08-13T09:24:31.894Z,33.5
2018-08-13T09:24:52.181Z,33.6
2018-08-13T09:25:12.336Z,33.4
2018-08-13T09:25:32.595Z,33.4
2018-08-13T09:25:52.883Z,33.6
2018-08-13T09:26:13.116Z,33.5
2018-08-13T09:26:33.330Z,34
2018-08-13T09:26:53.671Z,34.1
2018-08-13T09:27:14.027Z,34.7
2018-08-13T09:27:34.286Z,34.9
2018-08-13T09:27:54.764Z,34.6
2018-08-13T09:28:15.149Z,34.7
2018-08-13T09:28:35.479Z,34.7
2018-08-13T09:28:55.543Z,34.1
2018-08-13T09:29:15.805Z,33.7
2018-08-13T09:29:36.203Z,33.6
2018-08-13T09:29:56.637Z,33.2
2018-08-13T09:30:16.733Z,33.1
2018-08-13T09:30:37.556Z,33.4
2018-08-13T09:30:58.012Z,33.5
2018-08-13T09:31:18.301Z,33.5
2018-08-13T09:31:38.547Z,33.4
2018-08-13T09:31:58.755Z,33.6
2018-08-13T09:32:19.024Z,33.9
2018-08-13T09:32:39.400Z,34.6
2018-08-13T09:32:59.619Z,34.1
2018-08-13T09:33:19.908Z,33.7
2018-08-13T09:33:40.301Z,33.1
2018-08-13T09:34:00.547Z,33.1
2018-08-13T09:34:20.855Z,32.9
2018-08-13T09:34:41.166Z,31.3
2018-08-13T09:35:01.390Z,30.8
2018-08-13T09:35:21.804Z,30.3
2018-08-13T09:35:42.087Z,30.2
2018-08-13T09:36:02.605Z,30.2
2018-08-13T09:36:22.968Z,30.7
2018-08-13T09:36:43.403Z,31.8
2018-08-13T09:37:03.713Z,31.7
2018-08-13T09:37:24.013Z,30.8
2018-08-13T09:37:44.266Z,29.9
2018-08-13T09:38:04.554Z,30.5
2018-08-13T09:38:24.950Z,30.8
2018-08-13T09:38:45.516Z,30.6
2018-08-13T09:39:05.752Z,30.3
2018-08-13T09:39:26.021Z,30.8
2018-08-13T09:39:46.313Z,30.8
2018-08-13T09:40:06.548Z,31.2
2018-08-13T09:40:26.850Z,31.4
2018-08-13T09:40:46.840Z,31.4
2018-08-13T09:41:07.097Z,31.6
2018-08-13T09:41:27.371Z,31.8
2018-08-13T09:41:47.647Z,31.4
2018-08-13T09:42:07.864Z,30.5
2018-08-13T09:42:28.084Z,30.1
2018-08-13T09:42:48.262Z,29.2
2018-08-13T09:43:08.450Z,29.1
2018-08-13T09:43:29.504Z,29.2
2018-08-13T09:43:49.723Z,30
2018-08-13T09:44:09.956Z,30.2
2018-08-13T09:44:30.168Z,29.9
2018-08-13T09:44:50.482Z,30
2018-08-13T09:45:10.539Z,30.1
2018-08-13T09:45:30.814Z,30.4
2018-08-13T09:45:51.040Z,30.2
2018-08-13T09:46:12.153Z,30.7
2018-08-13T09:46:32.468Z,30.9
2018-08-13T09:46:52.828Z,31.1
2018-08-13T09:47:13.186Z,31.1
2018-08-13T09:47:33.597Z,31
2018-08-13T09:47:53.860Z,31.4
2018-08-13T09:48:14.521Z,31.2
2018-08-13T09:48:34.817Z,30.9
2018-08-13T09:48:55.178Z,31.3
2018-08-13T09:49:15.570Z,31.3
2018-08-13T09:49:35.872Z,31.3
2018-08-13T09:49:57.373Z,31.5
2018-08-13T09:50:17.773Z,31.6
2018-08-13T09:50:38.053Z,32
2018-08-13T09:50:58.442Z,31.3
2018-08-13T09:51:18.815Z,29.7
2018-08-13T09:51:39.126Z,29.6
2018-08-13T09:51:59.311Z,30.3
2018-08-13T09:52:19.620Z,31
2018-08-13T09:52:39.870Z,31.3
2018-08-13T09:53:00.199Z,31.2
2018-08-13T09:53:20.257Z,31.2
2018-08-13T09:53:40.613Z,30.7
2018-08-13T09:54:00.829Z,30.1
2018-08-13T09:54:21.131Z,30.1
2018-08-13T09:54:41.393Z,30.1
2018-08-13T09:55:01.797Z,30.8
2018-08-13T09:55:22.162Z,30.9
2018-08-13T09:55:42.355Z,30.8
2018-08-13T09:56:02.623Z,30.8
2018-08-13T09:56:23.022Z,31.6
2018-08-13T09:56:43.232Z,30.5
2018-08-13T09:57:03.559Z,30.3
2018-08-13T09:57:23.871Z,30.5
2018-08-13T09:57:44.073Z,29.3
2018-08-13T09:58:04.358Z,29.7
2018-08-13T09:58:24.708Z,30.2
2018-08-13T09:58:45.132Z,29.7
2018-08-13T09:59:05.425Z,29.6
2018-08-13T09:59:25.889Z,30.3
2018-08-13T09:59:46.173Z,30.2
2018-08-13T10:00:06.593Z,30.2
2018-08-13T10:00:27.145Z,29.9
2018-08-13T10:00:47.447Z,29.7
2018-08-13T10:01:07.736Z,29.2
2018-08-13T10:01:27.953Z,29.1
2018-08-13T10:01:48.295Z,27.8
2018-08-13T10:02:08.563Z,27.7
2018-08-13T10:02:28.847Z,27.4
2018-08-13T10:02:49.072Z,27.4
2018-08-13T10:03:09.457Z,27.4
2018-08-13T10:03:29.738Z,27.4
2018-08-13T10:03:50.209Z,27.4
2018-08-13T10:04:10.395Z,27.6
2018-08-13T10:04:30.645Z,27.8
2018-08-13T10:04:51.990Z,27.8
2018-08-13T10:05:12.478Z,28.1
2018-08-13T10:05:32.899Z,28.5
2018-08-13T10:05:53.171Z,28.5
2018-08-13T10:06:13.407Z,28.5
2018-08-13T10:06:33.825Z,27.7
2018-08-13T10:06:54.267Z,27.2
2018-08-13T10:07:15.088Z,27.4
2018-08-13T10:07:35.472Z,28.1
2018-08-13T10:07:55.904Z,28
2018-08-13T10:08:16.496Z,27.8
2018-08-13T10:08:37.082Z,28.5
2018-08-13T10:08:57.980Z,28.5
2018-08-13T10:09:19.756Z,27.6
2018-08-13T10:09:40.086Z,27.6
2018-08-13T10:10:00.819Z,26.5
2018-08-13T10:10:21.118Z,26.6
2018-08-13T10:10:41.518Z,27.1
2018-08-13T10:11:02.023Z,26.9
2018-08-13T10:11:22.240Z,26.7
2018-08-13T10:11:42.409Z,26.8
2018-08-13T10:12:02.603Z,26.3
2018-08-13T10:12:22.988Z,26.8
2018-08-13T10:12:44.284Z,27.6
2018-08-13T10:13:04.516Z,27.7
2018-08-13T10:13:24.681Z,27.4
2018-08-13T10:13:45.110Z,28.4
2018-08-13T10:14:05.430Z,28.1
2018-08-13T10:14:25.732Z,28.6
2018-08-13T10:14:46.888Z,27.8